createdAt,value
2018-10-11T00:01:13.356Z,83.76
2018-10-11T00:04:17.653Z,83.84
2018-10-11T00:07:21.776Z,83.24
2018-10-11T00:10:26.078Z,83.51
2018-10-11T00:13:30.058Z,83.48
2018-10-11T00:16:34.273Z,82.97
2018-10-11T00:19:38.319Z,83.98
2018-10-11T00:22:42.364Z,83.64
2018-10-11T00:25:46.740Z,83.85
2018-10-11T00:28:50.916Z,83.26
2018-10-11T00:31:54.939Z,83.84
2018-10-11T00:34:59.255Z,83.52
2018-10-11T00:38:03.323Z,83.34
2018-10-11T00:41:08.003Z,83.62
2018-10-11T00:44:14.840Z,83.39
2018-10-11T00:47:19.068Z,83.89
2018-10-11T00:50:23.239Z,83.14
2018-10-11T00:53:27.232Z,83.73
2018-10-11T00:56:31.221Z,83.90
2018-10-11T00:59:35.197Z,83.59
2018-10-11T01:02:39.746Z,83.81
2018-10-11T01:05:44.500Z,83.79
2018-10-11T01:08:49.062Z,83.04
2018-10-11T01:11:53.061Z,83.91
2018-10-11T01:14:57.166Z,83.54
2018-10-11T01:18:01.157Z,83.46
2018-10-11T01:21:05.421Z,83.55
2018-10-11T01:24:09.882Z,83.26
2018-10-11T01:27:14.418Z,83.92
2018-10-11T01:30:18.504Z,84.33
2018-10-11T01:33:22.991Z,84.28
2018-10-11T01:36:26.918Z,84.13
2018-10-11T01:39:30.901Z,84.03
2018-10-11T01:42:35.140Z,83.72
2018-10-11T01:45:39.243Z,84.27
2018-10-11T01:48:43.582Z,83.81
2018-10-11T01:51:47.859Z,83.96
2018-10-11T01:54:52.099Z,84.52
2018-10-11T01:57:58.277Z,83.83
2018-10-11T02:01:03.389Z,84.76
2018-10-11T02:04:08.495Z,84.42
2018-10-11T02:07:12.607Z,84.92
2018-10-11T02:10:16.611Z,84.51
2018-10-11T02:13:20.606Z,84.34
2018-10-11T02:16:24.891Z,84.55
2018-10-11T02:19:29.464Z,84.77
2018-10-11T02:22:34.408Z,84.87
2018-10-11T02:25:38.668Z,84.55
2018-10-11T02:28:42.680Z,84.64
2018-10-11T02:31:46.892Z,84.85
2018-10-11T02:34:51.264Z,84.54
2018-10-11T02:37:55.433Z,85.13
2018-10-11T02:40:59.654Z,85.00
2018-10-11T02:44:03.723Z,85.44
2018-10-11T02:47:07.770Z,85.26
2018-10-11T02:50:11.803Z,84.40
2018-10-11T02:53:15.796Z,85.18
2018-10-11T02:56:20.581Z,85.37
2018-10-11T02:59:30.642Z,85.00
2018-10-11T03:02:36.269Z,84.76
2018-10-11T03:05:42.704Z,85.38
2018-10-11T03:08:47.189Z,85.37
2018-10-11T03:11:51.554Z,85.00
2018-10-11T03:14:55.868Z,85.46
2018-10-11T03:21:07.951Z,84.66
2018-10-11T03:24:12.542Z,85.34
2018-10-11T03:27:16.792Z,85.49
2018-10-11T03:30:20.812Z,85.13
2018-10-11T03:33:25.096Z,85.30
2018-10-11T03:36:29.267Z,84.98
2018-10-11T03:39:33.478Z,85.12
2018-10-11T03:42:37.493Z,85.02
2018-10-11T03:45:41.503Z,84.92
2018-10-11T03:48:45.815Z,85.22
2018-10-11T03:51:49.811Z,84.67
2018-10-11T03:54:54.198Z,85.30
2018-10-11T03:57:58.686Z,84.82
2018-10-11T04:01:03.010Z,84.76
2018-10-11T04:04:06.974Z,85.51
2018-10-11T04:07:11.126Z,85.91
2018-10-11T04:10:15.275Z,85.01
2018-10-11T04:13:19.431Z,85.80
2018-10-11T04:16:23.575Z,85.54
2018-10-11T04:19:27.730Z,85.42
2018-10-11T04:22:31.670Z,84.90
2018-10-11T04:25:35.802Z,85.91
2018-10-11T04:28:39.727Z,85.31
2018-10-11T04:31:43.691Z,85.02
2018-10-11T04:34:47.792Z,85.01
2018-10-11T04:37:51.934Z,85.37
2018-10-11T04:40:56.148Z,85.92
2018-10-11T04:44:00.315Z,85.17
2018-10-11T04:47:05.363Z,86.11
2018-10-11T04:50:10.393Z,85.01
2018-10-11T04:53:15.039Z,85.93
2018-10-11T04:56:19.023Z,85.46
2018-10-11T04:59:23.316Z,85.86
2018-10-11T05:02:27.248Z,85.63
2018-10-11T05:05:31.307Z,85.81
2018-10-11T05:08:38.770Z,85.89
2018-10-11T05:11:43.632Z,85.98
2018-10-11T05:14:47.682Z,85.56
2018-10-11T05:17:51.944Z,85.55
2018-10-11T05:20:55.932Z,85.58
2018-10-11T05:24:00.631Z,86.28
2018-10-11T05:27:04.731Z,85.28
2018-10-11T05:30:08.982Z,85.98
2018-10-11T05:33:13.255Z,85.92
2018-10-11T05:36:17.439Z,86.04
2018-10-11T05:39:21.735Z,85.65
2018-10-11T05:42:25.691Z,86.09
2018-10-11T05:45:30.194Z,86.44
2018-10-11T05:48:34.492Z,86.15
2018-10-11T05:51:38.902Z,86.49
2018-10-11T05:54:42.877Z,85.99
2018-10-11T05:57:47.046Z,85.69
2018-10-11T06:00:51.077Z,85.92
2018-10-11T06:03:55.807Z,86.19
2018-10-11T06:06:59.755Z,86.00
2018-10-11T06:10:04.291Z,86.00
2018-10-11T06:13:09.553Z,86.22
2018-10-11T06:16:14.853Z,86.09
2018-10-11T06:19:19.341Z,86.41
2018-10-11T06:22:23.505Z,86.68
2018-10-11T06:25:27.673Z,85.87
2018-10-11T06:28:31.619Z,86.48
2018-10-11T06:31:35.841Z,85.90
2018-10-11T06:34:39.788Z,86.73
2018-10-11T06:37:44.362Z,86.37
2018-10-11T06:40:48.290Z,86.72
2018-10-11T06:43:52.267Z,86.25
2018-10-11T06:46:56.410Z,86.75
2018-10-11T06:50:01.658Z,86.48
2018-10-11T06:53:06.114Z,86.14
2018-10-11T06:56:10.276Z,86.46
2018-10-11T06:59:14.236Z,87.08
2018-10-11T07:02:18.232Z,86.64
2018-10-11T07:05:22.180Z,87.05
2018-10-11T07:08:26.968Z,87.24
2018-10-11T07:11:30.907Z,87.05
2018-10-11T07:14:35.308Z,87.07
2018-10-11T07:17:40.155Z,87.42
2018-10-11T07:20:44.286Z,86.82
2018-10-11T07:23:48.267Z,87.02
2018-10-11T07:26:52.444Z,87.17
2018-10-11T07:29:56.510Z,87.14
2018-10-11T07:33:00.501Z,87.07
2018-10-11T07:36:04.448Z,86.34
2018-10-11T07:39:11.276Z,86.38
2018-10-11T07:42:15.452Z,86.09
2018-10-11T07:45:19.495Z,86.43
2018-10-11T07:48:23.473Z,86.91
2018-10-11T07:51:27.419Z,86.86
2018-10-11T07:54:34.379Z,87.37
2018-10-11T07:57:38.871Z,86.46
2018-10-11T08:00:42.823Z,86.65
2018-10-11T08:03:46.858Z,86.66
2018-10-11T08:06:50.856Z,86.20
2018-10-11T08:09:55.180Z,87.42
2018-10-11T08:12:59.198Z,86.21
2018-10-11T08:16:03.463Z,86.03
2018-10-11T08:19:08.273Z,86.33
2018-10-11T08:22:12.159Z,87.16
2018-10-11T08:25:17.050Z,86.60
2018-10-11T08:28:20.885Z,86.30
2018-10-11T08:31:25.147Z,87.24
2018-10-11T08:34:30.009Z,85.97
2018-10-11T08:37:34.417Z,86.10
2018-10-11T08:40:38.715Z,85.84
2018-10-11T08:43:42.702Z,85.79
2018-10-11T08:46:46.855Z,86.47
2018-10-11T08:49:51.263Z,85.47
2018-10-11T08:52:55.265Z,86.12
2018-10-11T08:55:59.343Z,85.21
2018-10-11T08:59:03.701Z,85.29
2018-10-11T09:02:07.876Z,85.66
2018-10-11T09:05:12.098Z,85.16
2018-10-11T09:08:16.140Z,85.50
2018-10-11T09:11:20.273Z,85.43
2018-10-11T09:14:24.364Z,85.21
2018-10-11T09:17:28.597Z,84.78
2018-10-11T09:20:32.725Z,84.12
2018-10-11T09:23:36.826Z,84.34
2018-10-11T09:26:40.887Z,84.68
2018-10-11T09:29:45.190Z,84.10
2018-10-11T09:32:49.408Z,83.82
2018-10-11T09:35:53.437Z,84.40
2018-10-11T09:38:57.464Z,83.83
2018-10-11T09:42:01.553Z,84.03
2018-10-11T09:45:06.292Z,84.04
2018-10-11T09:48:10.291Z,84.54
2018-10-11T09:51:14.271Z,83.86
2018-10-11T09:54:18.290Z,84.53
2018-10-11T09:57:32.074Z,83.79
2018-10-11T10:00:41.438Z,84.26
2018-10-11T10:03:45.657Z,83.30
2018-10-11T10:06:49.669Z,83.06
2018-10-11T10:09:53.698Z,84.25
2018-10-11T10:12:57.866Z,84.20
2018-10-11T10:16:01.822Z,84.11
2018-10-11T10:19:05.844Z,83.60
2018-10-11T10:25:43.666Z,83.01
2018-10-11T10:28:47.610Z,83.69
2018-10-11T10:31:51.847Z,83.46
2018-10-11T10:34:55.807Z,83.71
2018-10-11T10:38:00.075Z,83.27
2018-10-11T10:41:04.014Z,83.33
2018-10-11T10:44:08.306Z,83.90
2018-10-11T10:47:12.240Z,83.68
2018-10-11T10:50:16.521Z,83.66
2018-10-11T10:53:20.453Z,83.76
2018-10-11T10:56:24.562Z,83.87
2018-10-11T10:59:28.901Z,84.00
2018-10-11T11:02:32.854Z,83.31
2018-10-11T11:05:36.781Z,83.39
2018-10-11T11:08:40.721Z,83.48
2018-10-11T11:11:45.033Z,83.70
2018-10-11T11:14:49.126Z,83.14
2018-10-11T11:17:53.058Z,82.71
2018-10-11T11:20:57.017Z,82.94
2018-10-11T11:24:01.599Z,83.10
2018-10-11T11:27:05.535Z,83.41
2018-10-11T11:30:09.526Z,82.23
2018-10-11T11:33:13.518Z,82.38
2018-10-11T11:36:17.921Z,82.94
2018-10-11T11:39:22.047Z,82.11
2018-10-11T11:42:26.004Z,82.34
2018-10-11T11:45:29.968Z,82.43
2018-10-11T11:48:33.915Z,82.70
2018-10-11T11:51:37.871Z,81.78
2018-10-11T11:54:41.827Z,81.91
2018-10-11T11:57:45.795Z,82.42
2018-10-11T12:00:50.071Z,81.97
2018-10-11T12:03:54.563Z,82.61
2018-10-11T12:06:58.517Z,81.61
2018-10-11T12:10:02.682Z,81.80
2018-10-11T12:13:08.943Z,81.21
2018-10-11T12:16:13.230Z,81.85
2018-10-11T12:19:17.427Z,81.79
2018-10-11T12:22:21.410Z,82.08
2018-10-11T12:25:25.707Z,82.19
2018-10-11T12:28:30.023Z,80.83
2018-10-11T12:31:34.122Z,81.46
2018-10-11T12:34:38.067Z,82.10
2018-10-11T12:37:42.063Z,81.83
2018-10-11T12:40:46.193Z,82.09
2018-10-11T12:43:50.340Z,81.77
2018-10-11T12:46:54.306Z,81.90
2018-10-11T12:49:58.237Z,81.92
2018-10-11T12:53:02.730Z,81.64
2018-10-11T12:56:07.107Z,82.20
2018-10-11T12:59:11.040Z,81.50
2018-10-11T13:02:14.978Z,81.29
2018-10-11T13:05:19.267Z,81.43
2018-10-11T13:08:23.198Z,81.18
2018-10-11T13:11:27.431Z,81.00
2018-10-11T13:14:31.722Z,81.06
2018-10-11T13:17:41.823Z,81.16
2018-10-11T13:20:39.830Z,81.01
2018-10-11T13:23:43.777Z,81.01
2018-10-11T13:26:47.914Z,80.58
2018-10-11T13:29:52.425Z,80.96
2018-10-11T13:32:56.374Z,81.49
2018-10-11T13:36:00.622Z,81.12
2018-10-11T13:39:07.043Z,81.17
2018-10-11T13:42:10.982Z,80.98
2018-10-11T13:45:15.143Z,80.57
2018-10-11T13:48:19.112Z,81.04
2018-10-11T13:51:23.036Z,80.23
2018-10-11T13:54:27.270Z,80.82
2018-10-11T13:57:31.488Z,79.30
2018-10-11T14:00:35.802Z,80.86
2018-10-11T14:03:39.693Z,80.66
2018-10-11T14:06:43.651Z,79.85
2018-10-11T14:09:48.140Z,80.37
2018-10-11T14:12:52.100Z,80.01
2018-10-11T14:15:56.056Z,79.66
2018-10-11T14:19:00.408Z,79.36
2018-10-11T14:22:04.758Z,78.76
2018-10-11T14:25:08.912Z,79.33
2018-10-11T14:28:12.906Z,79.12
2018-10-11T14:31:16.843Z,79.01
2018-10-11T14:34:21.082Z,78.91
2018-10-11T14:37:25.186Z,78.70
2018-10-11T14:44:04.923Z,78.90
2018-10-11T14:47:09.179Z,78.73
2018-10-11T14:50:13.342Z,78.86
2018-10-11T14:53:17.517Z,79.38
2018-10-11T14:56:21.652Z,79.14
2018-10-11T14:59:25.621Z,78.33
2018-10-11T15:02:30.099Z,78.54
2018-10-11T15:05:34.122Z,79.17
2018-10-11T15:08:38.399Z,78.37
2018-10-11T15:11:42.590Z,78.56
2018-10-11T15:14:46.730Z,78.23
2018-10-11T15:17:50.951Z,78.31
2018-10-11T15:20:55.224Z,78.66
2018-10-11T15:23:59.190Z,78.17
2018-10-11T15:27:03.581Z,78.37
2018-10-11T15:30:07.770Z,78.67
2018-10-11T15:33:12.100Z,78.24
2018-10-11T15:36:16.079Z,78.81
2018-10-11T15:39:20.439Z,78.40
2018-10-11T15:42:24.616Z,78.83
2018-10-11T15:45:28.742Z,78.73
2018-10-11T15:48:32.696Z,78.54
2018-10-11T15:51:37.138Z,78.02
2018-10-11T15:54:41.083Z,78.09
2018-10-11T15:57:45.063Z,77.93
2018-10-11T16:00:49.055Z,78.52
2018-10-11T16:03:53.181Z,78.64
2018-10-11T16:06:57.234Z,78.14
2018-10-11T16:10:01.449Z,78.27
2018-10-11T16:13:05.443Z,78.51
2018-10-11T16:16:09.385Z,78.51
2018-10-11T16:19:13.319Z,79.07
2018-10-11T16:22:17.640Z,79.36
2018-10-11T16:25:21.603Z,79.34
2018-10-11T16:28:27.303Z,78.89
2018-10-11T16:31:31.227Z,78.67
2018-10-11T16:34:35.176Z,78.69
2018-10-11T16:37:39.118Z,78.41
2018-10-11T16:40:43.072Z,78.06
2018-10-11T16:43:47.058Z,78.21
2018-10-11T16:46:51.011Z,77.93
2018-10-11T16:49:55.054Z,78.69
2018-10-11T16:52:59.534Z,78.25
2018-10-11T16:56:03.504Z,78.21
2018-10-11T16:59:07.510Z,78.57
2018-10-11T17:02:11.466Z,78.51
2018-10-11T17:05:15.485Z,78.68
2018-10-11T17:08:19.502Z,78.22
2018-10-11T17:11:23.487Z,78.61
2018-10-11T17:14:27.735Z,78.08
2018-10-11T17:17:31.738Z,77.81
2018-10-11T17:20:36.143Z,77.98
2018-10-11T17:23:40.122Z,77.72
2018-10-11T17:26:44.090Z,77.55
2018-10-11T17:29:48.345Z,78.22
2018-10-11T17:32:58.818Z,77.29
2018-10-11T17:36:03.141Z,78.43
2018-10-11T17:39:08.460Z,78.20
2018-10-11T17:42:12.577Z,77.63
2018-10-11T17:45:16.647Z,78.08
2018-10-11T17:48:20.610Z,78.39
2018-10-11T17:51:24.583Z,77.83
2018-10-11T17:54:28.523Z,77.72
2018-10-11T17:57:32.469Z,78.24
2018-10-11T18:00:36.442Z,78.70
2018-10-11T18:03:40.406Z,77.90
2018-10-11T18:06:44.691Z,77.33
2018-10-11T18:09:49.093Z,77.92
2018-10-11T18:12:53.223Z,77.51
2018-10-11T18:15:57.231Z,78.09
2018-10-11T18:19:01.375Z,77.57
2018-10-11T18:22:05.474Z,76.96
2018-10-11T18:25:09.584Z,76.82
2018-10-11T18:28:13.575Z,77.88
2018-10-11T18:31:17.518Z,77.01
2018-10-11T18:34:21.451Z,77.67
2018-10-11T18:37:25.378Z,77.91
2018-10-11T18:40:29.314Z,77.51
2018-10-11T18:43:33.238Z,76.77
2018-10-11T18:46:37.160Z,76.93
2018-10-11T18:49:41.280Z,77.10
2018-10-11T18:52:45.238Z,76.95
2018-10-11T18:55:49.157Z,77.74
2018-10-11T18:58:53.274Z,77.24
2018-10-11T19:01:57.198Z,77.74
2018-10-11T19:05:01.136Z,77.46
2018-10-11T19:08:05.087Z,76.90
2018-10-11T19:11:09.450Z,77.04
2018-10-11T19:14:13.390Z,76.88
2018-10-11T19:17:17.307Z,77.09
2018-10-11T19:20:21.252Z,77.26
2018-10-11T19:23:25.347Z,76.80
2018-10-11T19:26:29.279Z,77.00
2018-10-11T19:29:33.227Z,76.83
2018-10-11T19:32:37.442Z,76.95
2018-10-11T19:35:41.370Z,77.26
2018-10-11T19:38:45.344Z,77.04
2018-10-11T19:41:49.403Z,76.82
2018-10-11T19:44:53.326Z,77.13
2018-10-11T19:47:57.274Z,76.67
2018-10-11T19:51:01.215Z,77.13
2018-10-11T19:54:05.376Z,76.73
2018-10-11T19:57:09.687Z,77.41
2018-10-11T20:00:13.814Z,77.35
2018-10-11T20:03:17.742Z,77.18
2018-10-11T20:06:21.679Z,77.14
2018-10-11T20:09:25.625Z,76.77
2018-10-11T20:12:30.085Z,76.70
2018-10-11T20:15:34.356Z,76.31
2018-10-11T20:18:38.557Z,76.30
2018-10-11T20:21:42.844Z,76.63
2018-10-11T20:24:46.784Z,76.42
2018-10-11T20:27:50.711Z,77.06
2018-10-11T20:30:54.861Z,76.94
2018-10-11T20:33:58.778Z,76.69
2018-10-11T20:37:02.724Z,77.13
2018-10-11T20:40:06.668Z,76.54
2018-10-11T20:43:10.606Z,76.41
2018-10-11T20:46:14.901Z,77.08
2018-10-11T20:49:18.842Z,77.08
2018-10-11T20:52:22.770Z,77.19
2018-10-11T20:55:26.701Z,77.23
2018-10-11T20:58:30.635Z,77.09
2018-10-11T21:01:34.579Z,77.09
2018-10-11T21:04:38.499Z,77.51
2018-10-11T21:07:42.492Z,77.34
2018-10-11T21:10:46.399Z,77.44
2018-10-11T21:13:50.355Z,76.73
2018-10-11T21:16:54.654Z,77.03
2018-10-11T21:19:58.611Z,77.20
2018-10-11T21:23:02.742Z,77.61
2018-10-11T21:26:06.690Z,76.83
2018-10-11T21:29:10.643Z,76.91
2018-10-11T21:32:14.596Z,77.13
2018-10-11T21:35:18.545Z,76.85
2018-10-11T21:38:22.677Z,77.36
2018-10-11T21:41:26.605Z,77.05
2018-10-11T21:44:31.083Z,77.31
2018-10-11T21:47:35.366Z,76.85
2018-10-11T21:50:39.314Z,77.55
2018-10-11T21:53:43.254Z,77.75
2018-10-11T21:56:47.203Z,77.21
2018-10-11T21:59:51.204Z,77.55
2018-10-11T22:02:55.271Z,77.14
2018-10-11T22:05:59.185Z,77.32
2018-10-11T22:09:03.176Z,77.44
2018-10-11T22:12:07.446Z,77.20
2018-10-11T22:15:11.484Z,77.52
2018-10-11T22:18:15.890Z,77.93
2018-10-11T22:21:19.821Z,77.45
2018-10-11T22:24:23.818Z,77.05
2018-10-11T22:27:27.743Z,77.82
2018-10-11T22:30:31.678Z,77.42
2018-10-11T22:33:35.634Z,77.91
2018-10-11T22:36:39.591Z,77.68
2018-10-11T22:39:43.697Z,77.18
2018-10-11T22:42:47.618Z,77.84
2018-10-11T22:45:51.571Z,78.11
2018-10-11T22:48:55.518Z,78.18
2018-10-11T22:51:59.476Z,77.19
2018-10-11T22:55:03.582Z,77.37
2018-10-11T22:58:07.848Z,77.86
2018-10-11T23:01:12.089Z,78.13
2018-10-11T23:04:16.026Z,77.80
2018-10-11T23:07:20.179Z,77.67
2018-10-11T23:10:24.102Z,77.22
2018-10-11T23:13:28.023Z,77.60
2018-10-11T23:16:31.931Z,77.51
2018-10-11T23:19:35.887Z,78.12
2018-10-11T23:22:41.202Z,77.49
2018-10-11T23:25:45.476Z,78.18
2018-10-11T23:28:49.421Z,77.52
2018-10-11T23:31:53.505Z,78.08
2018-10-11T23:34:57.469Z,78.27
2018-10-11T23:38:01.412Z,77.67
2018-10-11T23:41:05.447Z,77.80
2018-10-11T23:44:09.855Z,77.69
2018-10-11T23:47:14.139Z,78.03
2018-10-11T23:50:18.070Z,78.00
2018-10-11T23:53:21.999Z,77.73
2018-10-11T23:56:26.091Z,77.86
2018-10-11T23:59:30.054Z,78.09
